TZDO2: Arkansas Rv at SH 344 nr Tulsa, OK

                                SHEF ID:       TZDO2     Arkansas Rv at SH 344 nr Tulsa, OK
STATION TYPE:

STAGE RIV-FLOW BAT-LOAD
ft cfs volt
Ccp-Rev Ccp-Rev Ccp-Rev
(America/Chicago)
08/28 00:00 10.33 5888 12.70
08/28 01:00 10.20 5399 12.67
08/28 02:00 9.97 4599 12.67
08/28 03:00 9.70 3760 12.63
08/28 04:00 9.41 2975 12.63
08/28 05:00 9.15 2366 12.60
08/28 06:00 8.91 1880 12.58
08/28 07:00 8.71 1528 12.56
08/28 08:00 8.55 1278 12.62
08/28 09:00 8.42 1096 12.72
08/28 10:00 8.31 955 12.96
08/28 11:00 8.22 848 13.09
08/28 12:00 8.14 760 13.19
08/28 13:00 8.05 669 13.36
08/28 14:00 8.06 678 13.36
08/28 15:00 8.77 1629 13.40
08/28 16:00 9.48 3154 13.26
08/28 17:00 9.91 4403 13.13
08/28 18:00 10.14 5183 13.09
08/28 19:00 10.25 5584 13.03
08/28 20:00 10.30 5773 12.91
08/28 21:00 10.32 5850 12.75
08/28 22:00 10.34 5927 12.73
08/28 23:00 ---- ---- ----
Data processed at Sat 29Aug2026 04:51 GMT

NOTICE: If you are parsing this page

Please convert to using our Data API. Starting early 2026 we will be migrating to: https://water.usace.army.mil with modern pages rendered in JavaScript. When this migration completes you will no longer be able to scrape this page! CWMSDataAPI (CDA)

Timeseries IDs (TSIDs)

TSIDs used from left to right in the data table
GILC.Stage.Inst.1Hour.0.Ccp-Rev
GILC.Flow.Inst.1Hour.0.Ccp-Rev
GILC.Volt-Battery Load.Inst.1Hour.0.Ccp-Rev

                            

All information presented herein is the property of the government of the United States of America and may be revised or deleted at any time without prior notice. Dissemination of this information without the expressed written consent of the Public Affairs Office, Tulsa District U.S. Army Corps of Engineers is strictly prohibited. These data are gathered electronically and, as presented, have NOT undergone any form of quality control. These data are NOT guaranteed to be valid or correct.